Data for 01/24/2007

Time Sea-Level Adjusted Pressure Absolute Pressure Temperature Relative Humidity Dew Point   
(mb) (inHg) (mb) (inHg) (C) (F) (%) (C) (F)
00:05 1027 30.33 856 25.28 4.6 40.3 64 -1.6 29.2
00:10 1027 30.33 856 25.28 4.7 40.5 64 -1.4 29.4
00:15 1027 30.33 856 25.28 4.6 40.4 65 -1.4 29.4
00:20 1027 30.33 856 25.28 4.5 40.1 65 -1.5 29.3
00:25 1027 30.33 856 25.28 4.5 40.1 65 -1.6 29.2
00:30 1027 30.33 856 25.28 4.6 40.2 65 -1.5 29.3
00:35 1027 30.33 856 25.28 4.5 40.2 65 -1.4 29.5
00:40 1027 30.33 856 25.28 4.2 39.6 67 -1.3 29.7
00:45 1027 30.33 856 25.28 4.1 39.4 67 -1.3 29.6
00:50 1027 30.33 856 25.28 4 39.1 69 -1.3 29.7
00:55 1027 30.33 856 25.28 3.4 38.2 72 -1.2 29.9
01:00 1027 30.33 856 25.28 2.8 37 74 -1.3 29.7
01:05 1027 30.33 856 25.28 2.4 36.2 78 -1 30.1
01:10 1027 30.33 856 25.28 2 35.7 80 -1.1 30.1
01:15 1027 30.33 856 25.28 2.1 35.8 79 -1.1 30
01:20 1027 30.33 856 25.28 2.1 35.8 79 -1.1 30
01:25 1027 30.33 856 25.28 1.9 35.5 78 -1.6 29.2
01:30 1027 30.33 856 25.28 1.3 34.3 81 -1.6 29
01:35 1027 30.33 856 25.28 1.3 34.4 80 -1.8 28.8
01:40 1027 30.33 856 25.28 1.2 34.1 81 -1.8 28.8
01:45 1027 30.33 856 25.28 1.2 34.2 77 -2.4 27.6
01:50 1027 30.33 856 25.28 1.7 35 78 -1.8 28.7
01:55 1027 30.33 856 25.28 1.7 35.1 77 -1.8 28.7
02:00 1027 30.33 856 25.28 1.6 34.8 79 -1.6 29.1
02:05 1027 30.33 856 25.28 1.4 34.5 80 -1.7 28.9
02:10 1027 30.33 856 25.28 1.3 34.3 79 -2 28.4
02:15 1027 30.33 856 25.28 1.1 34 79 -2.1 28.1
02:20 1027 30.33 856 25.28 1.3 34.4 76 -2.4 27.7
02:25 1027 30.33 856 25.28 1.7 35 75 -2.4 27.7
02:30 1027 30.33 856 25.28 1.6 34.9 76 -2.2 28
02:35 1027 30.33 856 25.28 1.1 34.1 78 -2.3 27.8
02:40 1027 30.33 856 25.28 1 33.8 79 -2.3 27.9
02:45 1027 30.33 856 25.28 1.1 33.9 78 -2.3 27.8
02:50 1027 30.33 856 25.28 1.3 34.4 77 -2.2 28.1
02:55 1027 30.33 856 25.28 1.2 34.2 77 -2.4 27.6
03:00 1027 30.33 856 25.28 1.2 34.1 76 -2.6 27.3
03:05 1027 30.33 856 25.28 0.2 32.3 82 -2.6 27.3
03:10 1027 30.33 856 25.28 0 32 83 -2.5 27.5
03:15 1027 30.33 856 25.28 0.7 33.2 80 -2.4 27.7
03:20 1027 30.33 856 25.28 0.9 33.6 78 -2.5 27.6
03:25 1027 30.33 856 25.28 0.7 33.3 79 -2.5 27.5
03:30 1027 30.33 856 25.28 0.8 33.5 79 -2.4 27.6
03:35 1027 30.33 856 25.28 0.8 33.4 80 -2.3 27.8
03:40 1027 30.33 856 25.28 0.7 33.2 80 -2.4 27.7
03:45 1027 30.33 856 25.28 0.8 33.4 79 -2.4 27.6
03:50 1027 30.33 856 25.28 0.6 33.1 80 -2.5 27.5
03:55 1027 30.33 856 25.28 0.5 32.9 80 -2.5 27.5
04:00 1027 30.33 856 25.28 0.6 33.1 80 -2.5 27.5
04:05 1027 30.33 856 25.28 0.7 33.2 80 -2.4 27.6
04:10 1027 30.33 856 25.28 0.6 33 80 -2.5 27.4
04:15 1027 30.33 856 25.28 0.7 33.2 78 -2.7 27.2
04:20 1027 30.33 856 25.28 0.7 33.3 79 -2.4 27.6
04:25 1027 30.33 856 25.28 1.1 33.9 77 -2.5 27.4
04:30 1027 30.33 856 25.28 0.7 33.2 79 -2.5 27.5
04:35 1027 30.33 856 25.28 0.8 33.5 78 -2.6 27.4
04:40 1027 30.33 856 25.28 1.1 33.9 77 -2.5 27.5
04:45 1027 30.33 856 25.28 0.9 33.7 78 -2.4 27.7
04:50 1027 30.33 856 25.28 0.9 33.7 76 -2.9 26.8
04:55 1027 30.33 856 25.28 1 33.7 76 -2.8 27
05:00 1027 30.33 856 25.28 1 33.8 73 -3.2 26.2
05:05 1027 30.33 857 25.31 1.2 34.2 73 -3.1 26.4
05:10 1027 30.33 857 25.31 1.2 34.2 73 -3.1 26.5
05:15 1027 30.33 857 25.31 1.2 34.1 73 -3.1 26.3
05:20 1027 30.33 857 25.31 1.2 34.1 72 -3.3 26.1
05:25 1027 30.33 857 25.31 0.9 33.6 74 -3.3 26.1
05:30 1027 30.33 857 25.31 0.7 33.2 76 -3.2 26.3
05:35 1027 30.33 857 25.31 0.3 32.5 78 -3.2 26.3
05:40 1027 30.33 857 25.31 -0.3 31.5 81 -3.2 26.3
05:45 1027 30.33 857 25.31 -0.3 31.4 79 -3.5 25.8
05:50 1027 30.33 857 25.31 -0.5 31.1 81 -3.3 26
05:55 1028 30.36 857 25.31 -0.3 31.5 80 -3.4 25.9
06:00 1028 30.36 857 25.31 -0.4 31.3 81 -3.3 26.1
06:05 1028 30.36 857 25.31 -0.2 31.7 79 -3.4 25.9
06:10 1028 30.36 857 25.31 -0.2 31.6 79 -3.5 25.7
06:15 1027 30.33 857 25.31 -0.5 31.1 81 -3.4 25.9
06:20 1028 30.36 857 25.31 -0.2 31.7 79 -3.4 25.9
06:25 1028 30.36 857 25.31 -0.4 31.3 80 -3.4 25.8
06:30 1028 30.36 857 25.31 -1.1 30 83 -3.6 25.5
06:35 1028 30.36 857 25.31 -1.4 29.5 85 -3.6 25.5
06:40 1027 30.33 857 25.31 -1.1 30 84 -3.5 25.8
06:45 1027 30.33 857 25.31 -1.1 30 84 -3.5 25.8
06:50 1027 30.33 857 25.31 -1.8 28.8 85 -4 24.9
06:55 1027 30.33 857 25.31 -1.6 29.1 85 -3.9 25.1
07:00 1027 30.33 857 25.31 -1 30.2 83 -3.5 25.7
07:05 1027 30.33 857 25.31 -0.8 30.6 83 -3.3 26
07:10 1027 30.33 857 25.31 -1.5 29.3 85 -3.8 25.2
07:15 1027 30.33 857 25.31 -1.9 28.5 86 -4 24.9
07:20 1027 30.33 857 25.31 -1.6 29.1 85 -3.9 25
07:25 1027 30.33 857 25.31 -1.5 29.3 82 -4.2 24.5
07:30 1027 30.33 857 25.31 -1.7 29 82 -4.3 24.2
07:35 1027 30.33 857 25.31 -1.8 28.7 86 -3.8 25.2
07:40 1027 30.33 857 25.31 -1.4 29.5 84 -3.7 25.3
07:45 1027 30.33 857 25.31 -0.9 30.4 84 -3.3 26
07:50 1027 30.33 857 25.31 -0.3 31.5 80 -3.4 25.9
07:55 1027 30.33 857 25.31 0.3 32.6 76 -3.5 25.7
08:00 1027 30.33 857 25.31 0.5 32.8 75 -3.4 25.9
08:05 1027 30.33 857 25.31 0.1 32.1 78 -3.3 26.1
08:10 1027 30.33 857 25.31 -0.1 31.8 78 -3.5 25.7
08:15 1027 30.33 857 25.31 -0.7 30.8 81 -3.5 25.6
08:20 1027 30.33 857 25.31 -0.8 30.5 82 -3.5 25.7
08:25 1028 30.36 857 25.31 -0.2 31.7 77 -3.7 25.3
08:30 1028 30.36 857 25.31 0.5 32.9 72 -4 24.8
08:35 1028 30.36 857 25.31 1.2 34.2 69 -3.7 25.3
08:40 1028 30.36 857 25.31 1.6 34.9 67 -3.9 25
08:45 1028 30.36 857 25.31 1.6 34.9 68 -3.7 25.3
08:50 1028 30.36 857 25.31 1.4 34.5 67 -4 24.8
08:55 1028 30.36 857 25.31 1.2 34.2 68 -4.1 24.6
09:00 1028 30.36 857 25.31 0.5 32.9 71 -4.1 24.6
09:05 1028 30.36 857 25.31 -0 31.9 75 -3.9 24.9
09:10 1028 30.36 857 25.31 0.9 33.6 71 -3.9 25
09:15 1028 30.36 857 25.31 1.7 35.1 69 -3.5 25.7
09:20 1028 30.36 857 25.31 1.5 34.7 70 -3.4 25.9
09:25 1028 30.36 857 25.31 1.9 35.4 68 -3.4 25.9
09:30 1028 30.36 857 25.31 1.6 35 70 -3.2 26.3
09:35 1028 30.36 857 25.31 1.5 34.7 69 -3.6 25.5
09:40 1028 30.36 857 25.31 1.8 35.3 68 -3.6 25.6
09:45 1028 30.36 857 25.31 2.4 36.3 66 -3.4 25.8
09:50 1028 30.36 857 25.31 2.5 36.5 63 -3.9 25
09:55 1028 30.36 857 25.31 2.5 36.5 63 -3.8 25.1
10:00 1028 30.36 857 25.31 2.1 35.7 64 -4 24.7
10:05 1028 30.36 857 25.31 1.6 34.9 65 -4.3 24.3
10:10 1028 30.36 857 25.31 1.4 34.5 65 -4.4 24
10:15 1028 30.36 857 25.31 1.3 34.4 65 -4.6 23.7
10:20 1028 30.36 857 25.31 2.1 35.7 63 -4.2 24.4
10:25 1028 30.36 857 25.31 2.6 36.7 61 -4.1 24.6
10:30 1028 30.36 857 25.31 3.3 38 59 -4 24.8
10:35 1028 30.36 857 25.31 4.3 39.8 55 -3.9 25
10:40 1028 30.36 857 25.31 4.5 40 56 -3.7 25.4
10:45 1028 30.36 857 25.31 4.5 40.2 56 -3.4 26
10:50 1028 30.36 857 25.31 3.5 38.3 59 -3.7 25.4
10:55 1028 30.36 857 25.31 4.6 40.2 53 -4.1 24.6
11:00 1028 30.36 857 25.31 5.1 41.2 53 -3.8 25.1
11:05 1028 30.36 857 25.31 4.5 40.2 56 -3.4 25.9
11:10 1028 30.36 857 25.31 4.5 40 55 -3.8 25.1
11:15 1028 30.36 857 25.31 5.2 41.3 51 -4.2 24.4
11:20 1028 30.36 857 25.31 5.8 42.5 49 -4 24.9
11:25 1028 30.36 857 25.31 5.2 41.4 55 -3.1 26.5
11:30 1028 30.36 857 25.31 4.9 40.9 55 -3.3 26.1
11:35 1028 30.36 857 25.31 4.4 39.9 56 -3.5 25.6
11:40 1028 30.36 857 25.31 3.8 38.9 57 -4 24.9
11:45 1028 30.36 857 25.31 4.2 39.5 57 -3.7 25.3
11:50 1028 30.36 857 25.31 4.7 40.4 53 -4 24.8
11:55 1028 30.36 857 25.31 5.3 41.6 52 -3.8 25.2
12:00 1028 30.36 857 25.31 5.4 41.8 51 -3.8 25.1
12:05 1028 30.36 857 25.31 5.2 41.4 53 -3.6 25.6
12:10 1028 30.36 857 25.31 3.8 38.8 58 -3.8 25.2
12:15 1028 30.36 857 25.31 3.1 37.6 60 -3.9 24.9
12:20 1028 30.36 857 25.31 2.9 37.1 62 -3.8 25.2
12:25 1028 30.36 857 25.31 3.4 38.1 57 -4.2 24.4
12:30 1027 30.33 857 25.31 3.9 39 56 -4 24.8
12:35 1027 30.33 857 25.31 3.8 38.9 58 -3.6 25.5
12:40 1027 30.33 856 25.28 3.5 38.2 58 -4 24.7
12:45 1027 30.33 856 25.28 4.6 40.3 54 -4 24.8
12:50 1027 30.33 856 25.28 5.4 41.7 53 -3.4 25.9
12:55 1027 30.33 856 25.28 6 42.9 50 -3.5 25.7
13:00 1027 30.33 856 25.28 6.5 43.8 49 -3.4 25.8
13:05 1027 30.33 856 25.28 6.6 43.9 50 -3 26.7
13:10 1027 30.33 856 25.28 6.7 44.1 49 -3.1 26.4
13:15 1027 30.33 856 25.28 6.5 43.7 50 -3.2 26.2
13:20 1027 30.33 856 25.28 6.3 43.4 49 -3.7 25.4
13:25 1027 30.33 856 25.28 6.7 44.1 49 -3.3 26.1
13:30 1027 30.33 856 25.28 6.9 44.5 48 -3.3 26.1
13:35 1027 30.33 856 25.28 6.8 44.2 50 -3 26.6
13:40 1027 30.33 856 25.28 6.4 43.5 51 -2.9 26.8
13:45 1027 30.33 856 25.28 5.9 42.6 52 -3.2 26.2
13:50 1027 30.33 856 25.28 6.7 44 50 -2.9 26.7
13:55 1027 30.33 856 25.28 6.2 43.2 52 -2.9 26.8
14:00 1027 30.33 856 25.28 5.7 42.2 52 -3.4 25.9
14:05 1027 30.33 856 25.28 4.9 40.8 57 -3 26.6
14:10 1027 30.33 856 25.28 3.9 38.9 59 -3.3 26
14:15 1027 30.33 856 25.28 3.6 38.5 59 -3.7 25.4
14:20 1027 30.33 856 25.28 4 39.2 58 -3.5 25.7
14:25 1027 30.33 856 25.28 4.5 40 56 -3.5 25.7
14:30 1027 30.33 856 25.28 5.2 41.3 54 -3.5 25.7
14:35 1027 30.33 856 25.28 5 41 55 -3.3 26
14:40 1027 30.33 856 25.28 4.8 40.6 55 -3.6 25.6
14:45 1027 30.33 856 25.28 5.1 41.2 53 -3.7 25.4
14:50 1027 30.33 856 25.28 6 42.8 50 -3.5 25.6
14:55 1027 30.33 856 25.28 5.7 42.2 52 -3.5 25.7
15:00 1027 30.33 856 25.28 6.3 43.3 49 -3.8 25.2
15:05 1027 30.33 856 25.28 6.6 43.8 47 -3.9 24.9
15:10 1027 30.33 856 25.28 6.2 43.2 48 -4.1 24.7
15:15 1027 30.33 856 25.28 6.4 43.5 47 -4.1 24.6
15:20 1027 30.33 856 25.28 6.6 43.9 47 -4 24.8
15:25 1027 30.33 856 25.28 6.3 43.4 48 -3.8 25.2
15:30 1027 30.33 856 25.28 6.6 43.9 47 -3.9 24.9
15:35 1027 30.33 856 25.28 6.5 43.8 48 -3.7 25.3
15:40 1027 30.33 856 25.28 6 42.9 49 -4 24.8
15:45 1027 30.33 856 25.28 6.4 43.6 47 -3.9 24.9
15:50 1027 30.33 856 25.28 6.3 43.3 49 -3.5 25.6
15:55 1027 30.33 856 25.28 6 42.9 49 -3.8 25.2
16:00 1027 30.33 856 25.28 5.9 42.7 50 -3.7 25.4
16:05 1027 30.33 856 25.28 5.5 41.9 52 -3.7 25.3
16:10 1026 30.3 856 25.28 5.6 42.1 50 -3.9 25
16:15 1026 30.3 856 25.28 5.8 42.4 50 -3.8 25.2
16:20 1026 30.3 856 25.28 5.8 42.5 50 -3.8 25.2
16:25 1026 30.3 855 25.25 5.7 42.2 50 -4 24.9
16:30 1026 30.3 855 25.25 5.4 41.7 51 -4 24.8
16:35 1026 30.3 855 25.25 5.7 42.3 50 -4 24.9
16:40 1026 30.3 855 25.25 5.9 42.6 50 -3.8 25.1
16:45 1026 30.3 855 25.25 5.9 42.6 49 -3.9 25
16:50 1026 30.3 855 25.25 5.6 42.1 51 -3.8 25.2
16:55 1026 30.3 855 25.25 5.1 41.2 53 -3.8 25.2
17:00 1026 30.3 855 25.25 4.6 40.3 53 -4.1 24.6
17:05 1026 30.3 855 25.25 4.3 39.7 53 -4.4 24.1
17:10 1026 30.3 855 25.25 4.1 39.4 55 -4.2 24.5
17:15 1026 30.3 855 25.25 3.7 38.6 55 -4.5 23.9
17:20 1026 30.3 855 25.25 3.5 38.3 57 -4.3 24.2
17:25 1026 30.3 855 25.25 3.4 38.2 56 -4.5 23.8
17:30 1026 30.3 855 25.25 3.8 38.8 53 -4.8 23.3
17:35 1026 30.3 855 25.25 4.1 39.3 53 -4.6 23.7
17:40 1026 30.3 855 25.25 3.7 38.7 50 -5.6 21.9
17:45 1026 30.3 855 25.25 3.3 37.9 54 -5.1 22.8
17:50 1026 30.3 855 25.25 3.1 37.5 54 -5.3 22.4
17:55 1026 30.3 855 25.25 3.2 37.8 52 -5.6 21.9
18:00 1026 30.3 855 25.25 3.3 37.9 51 -6 21.3
18:05 1026 30.3 855 25.25 3 37.5 51 -6.3 20.7
18:10 1026 30.3 855 25.25 3.2 37.8 50 -6.2 20.9
18:15 1026 30.3 855 25.25 2.9 37.2 52 -6.1 21.1
18:20 1026 30.3 855 25.25 2.7 36.9 50 -6.8 19.7
18:25 1026 30.3 855 25.25 3.1 37.5 50 -6.3 20.7
18:30 1026 30.3 855 25.25 3.1 37.6 50 -6.3 20.6
18:35 1026 30.3 855 25.25 3.4 38.1 48 -6.6 20.2
18:40 1026 30.3 855 25.25 3.1 37.5 50 -6.4 20.4
18:45 1026 30.3 855 25.25 3 37.4 52 -5.9 21.4
18:50 1026 30.3 855 25.25 2.8 37.1 54 -5.6 21.9
18:55 1026 30.3 855 25.25 3.2 37.8 52 -5.8 21.6
19:00 1026 30.3 855 25.25 2.5 36.6 55 -5.5 22
19:05 1026 30.3 855 25.25 1.9 35.4 58 -5.6 21.9
19:10 1026 30.3 855 25.25 1.5 34.7 56 -6.2 20.8
19:15 1026 30.3 855 25.25 1.7 35.1 56 -6.2 20.8
19:20 1026 30.3 855 25.25 1.6 34.8 55 -6.6 20.2
19:25 1026 30.3 855 25.25 1.8 35.3 55 -6.4 20.5
19:30 1026 30.3 855 25.25 1.7 35 57 -6 21.1
19:35 1026 30.3 855 25.25 0.5 33 62 -5.8 21.5
19:40 1026 30.3 855 25.25 0.4 32.7 62 -6 21.2
19:45 1026 30.3 855 25.25 0.6 33.1 61 -6 21.2
19:50 1026 30.3 855 25.25 0.5 32.9 62 -6 21.2
19:55 1026 30.3 855 25.25 0.2 32.3 62 -6.3 20.6
20:00 1026 30.3 855 25.25 0.9 33.7 57 -6.6 20.2
20:05 1026 30.3 855 25.25 1.5 34.6 56 -6.4 20.5
20:10 1026 30.3 855 25.25 1.7 35 56 -6.2 20.8
20:15 1026 30.3 855 25.25 1.6 34.9 56 -6.2 20.9
20:20 1026 30.3 855 25.25 1.2 34.2 55 -6.8 19.7
20:25 1026 30.3 855 25.25 1.2 34.2 52 -7.6 18.4
20:30 1026 30.3 855 25.25 1.6 34.9 51 -7.6 18.3
20:35 1026 30.3 855 25.25 1.8 35.2 51 -7.3 18.8
20:40 1026 30.3 855 25.25 1.9 35.5 50 -7.4 18.7
20:45 1026 30.3 855 25.25 1.9 35.4 51 -7.2 19.1
20:50 1026 30.3 855 25.25 1.5 34.7 52 -7.3 18.9
20:55 1026 30.3 855 25.25 1.3 34.3 53 -7.2 19
21:00 1026 30.3 855 25.25 1 33.9 54 -7.2 19.1
21:05 1026 30.3 855 25.25 0.9 33.7 54 -7.3 18.9
21:10 1026 30.3 855 25.25 0.8 33.4 56 -7.1 19.3
21:15 1026 30.3 855 25.25 0.5 32.9 55 -7.4 18.7
21:20 1026 30.3 855 25.25 0.6 33 53 -7.8 17.9
21:25 1026 30.3 855 25.25 0.8 33.4 53 -7.8 17.9
21:30 1026 30.3 855 25.25 1.1 34.1 53 -7.5 18.5
21:35 1026 30.3 855 25.25 1 33.8 54 -7.4 18.7
21:40 1026 30.3 855 25.25 0.7 33.3 55 -7.3 18.8
21:45 1026 30.3 855 25.25 1 33.9 53 -7.4 18.7
21:50 1026 30.3 855 25.25 1.2 34.2 53 -7.4 18.6
21:55 1026 30.3 855 25.25 1 33.9 54 -7.3 18.9
22:00 1026 30.3 855 25.25 0.7 33.3 54 -7.5 18.5
22:05 1026 30.3 855 25.25 0.8 33.5 54 -7.4 18.7
22:10 1026 30.3 855 25.25 0.7 33.2 55 -7.3 18.9
22:15 1026 30.3 855 25.25 0.6 33.1 55 -7.3 18.8
22:20 1026 30.3 855 25.25 0.2 32.3 59 -7 19.3
22:25 1026 30.3 855 25.25 -0.2 31.7 62 -6.7 20
22:30 1026 30.3 855 25.25 0.1 32.2 61 -6.6 20.1
22:35 1026 30.3 855 25.25 0.1 32.2 62 -6.4 20.4
22:40 1026 30.3 855 25.25 0.2 32.3 61 -6.5 20.3
22:45 1026 30.3 855 25.25 0.2 32.4 60 -6.6 20.2
22:50 1026 30.3 855 25.25 0.1 32.2 61 -6.6 20.1
22:55 1026 30.3 855 25.25 0.2 32.4 60 -6.7 19.9
23:00 1026 30.3 855 25.25 0.2 32.4 60 -6.6 20.1
23:05 1026 30.3 855 25.25 0.3 32.6 60 -6.6 20.1
23:10 1026 30.3 855 25.25 0.4 32.7 60 -6.4 20.5
23:15 1026 30.3 855 25.25 0.2 32.4 61 -6.4 20.6
23:20 1026 30.3 855 25.25 -0.1 31.8 61 -6.7 19.9
23:25 1026 30.3 855 25.25 -0.3 31.5 61 -6.8 19.7
23:30 1026 30.3 855 25.25 -0.1 31.7 60 -6.9 19.6
23:35 1026 30.3 855 25.25 -0.4 31.4 61 -7 19.4
23:40 1026 30.3 855 25.25 -0.8 30.6 63 -6.9 19.6
23:45 1026 30.3 855 25.25 -0.6 30.8 62 -7.1 19.3
23:50 1026 30.3 855 25.25 -0.4 31.3 60 -7.1 19.2
23:55 1026 30.3 855 25.25 -0.2 31.6 60 -7 19.5
24:00 1026 30.3 855 25.25 -0.2 31.7 61 -6.9 19.6